Time;durP1;ratioP1;P1;durP2;ratioP2;P2;SDS_P1;SDS_P2;PMS_P1;PMS_P2;Temp;Humidity;BMP_temperature;BMP_pressure;BME280_temperature;BME280_humidity;BME280_pressure;Samples;Min_cycle;Max_cycle;Signal;HPM_P1;HPM_P2
2023/03/26 00:00:25;;;;;;;34.00;18.37;;;;;;;11.28;66.75;99376.11;124663;1099;104195;-71
2023/03/26 00:03:19;;;;;;;34.30;18.17;;;;;;;11.25;66.79;99381.31;124721;1099;104719;-71
2023/03/26 00:06:02;;;;;;;33.15;18.17;;;;;;;11.21;66.71;99384.77;124701;1099;103645;-72
2023/03/26 00:08:33;;;;;;;34.67;18.93;;;;;;;11.23;66.51;99383.04;124713;1098;104294;-71
2023/03/26 00:11:06;;;;;;;35.57;18.07;;;;;;;11.22;66.68;99384.80;124721;1099;104181;-70
2023/03/26 00:13:37;;;;;;;36.30;18.60;;;;;;;11.21;67.31;99380.39;124734;1099;104369;-71
2023/03/26 00:16:10;;;;;;;33.27;19.27;;;;;;;11.25;67.08;99387.47;124672;1099;104169;-71
2023/03/26 00:18:42;;;;;;;31.63;18.53;;;;;;;11.26;67.08;99388.34;124746;1099;104197;-71
2023/03/26 00:21:17;;;;;;;32.85;18.30;;;;;;;11.23;67.20;99386.54;124644;1099;104648;-70
2023/03/26 00:23:49;;;;;;;35.47;19.40;;;;;;;11.27;67.44;99375.23;124275;1099;103719;-71
2023/03/26 00:26:20;;;;;;;32.77;17.33;;;;;;;11.28;67.04;99384.89;124675;1099;102226;-71
2023/03/26 00:28:51;;;;;;;33.87;19.30;;;;;;;11.21;67.27;99384.77;124755;1099;101839;-70
2023/03/26 00:31:23;;;;;;;36.65;19.45;;;;;;;11.21;67.42;99388.27;124743;1099;101960;-71
2023/03/26 00:33:55;;;;;;;34.03;18.20;;;;;;;11.19;67.43;99394.34;124706;1099;104245;-71
2023/03/26 00:36:27;;;;;;;38.43;18.97;;;;;;;11.20;67.55;99394.38;124640;1096;101826;-70
2023/03/26 00:38:58;;;;;;;38.03;19.57;;;;;;;11.24;67.59;99395.32;124698;1099;104242;-71
2023/03/26 00:41:29;;;;;;;34.47;19.50;;;;;;;11.26;67.56;99389.22;124694;1099;104304;-71
2023/03/26 00:44:01;;;;;;;33.60;18.60;;;;;;;11.30;67.55;99383.16;124731;1098;104248;-71
2023/03/26 00:46:33;;;;;;;36.53;20.27;;;;;;;11.35;67.67;99385.85;124644;1099;104219;-70
2023/03/26 00:49:09;;;;;;;38.40;19.63;;;;;;;11.37;67.81;99389.38;124647;1099;104153;-71
2023/03/26 00:51:43;;;;;;;37.47;20.97;;;;;;;11.40;67.73;99397.30;124641;1099;102288;-71
2023/03/26 00:54:15;;;;;;;35.90;20.23;;;;;;;11.43;67.88;99391.22;124689;1099;104169;-71
2023/03/26 00:56:46;;;;;;;36.10;20.77;;;;;;;11.44;67.99;99401.75;124720;1099;104183;-71
2023/03/26 00:59:17;;;;;;;35.63;20.03;;;;;;;11.45;67.93;99393.02;124690;1099;104057;-70
2023/03/26 01:01:50;;;;;;;35.30;19.80;;;;;;;11.43;68.12;99397.34;124708;1099;104313;-72
2023/03/26 01:04:29;;;;;;;35.23;18.77;;;;;;;11.43;68.04;99386.84;124702;1099;104192;-70
2023/03/26 01:07:04;;;;;;;36.37;18.90;;;;;;;11.44;68.05;99387.74;124804;1098;101830;-70
2023/03/26 01:09:41;;;;;;;34.13;19.17;;;;;;;11.44;68.20;99383.36;124653;1099;104313;-70
2023/03/26 01:12:18;;;;;;;34.83;19.43;;;;;;;11.43;68.11;99375.45;124692;1098;104265;-70
2023/03/26 01:14:51;;;;;;;33.27;18.50;;;;;;;11.43;68.08;99371.08;124789;1099;104181;-70
2023/03/26 01:17:23;;;;;;;35.50;20.17;;;;;;;11.40;68.23;99378.91;124553;1099;104322;-70
2023/03/26 01:20:11;;;;;;;34.97;19.27;;;;;;;11.39;68.42;99374.55;124725;1099;104698;-71
2023/03/26 01:22:45;;;;;;;33.27;18.33;;;;;;;11.41;68.52;99374.56;124707;1099;104285;-70
2023/03/26 01:25:17;;;;;;;35.10;19.40;;;;;;;11.39;68.88;99373.64;124667;1099;104241;-72
2023/03/26 01:27:52;;;;;;;34.23;18.67;;;;;;;11.35;68.54;99377.97;124722;1099;104166;-70
2023/03/26 01:30:32;;;;;;;35.80;19.03;;;;;;;11.32;69.19;99381.42;124299;1099;104246;-71
2023/03/26 01:33:13;;;;;;;34.87;19.43;;;;;;;11.32;69.10;99375.30;124562;1099;104262;-71
2023/03/26 01:35:50;;;;;;;34.33;19.27;;;;;;;11.30;69.15;99383.16;124693;1099;104803;-71
2023/03/26 01:38:34;;;;;;;36.20;20.40;;;;;;;11.28;69.41;99371.76;124707;1099;104338;-71
2023/03/26 01:41:10;;;;;;;36.83;19.63;;;;;;;11.29;69.26;99377.88;124688;1099;104242;-71
2023/03/26 01:43:51;;;;;;;34.33;19.73;;;;;;;11.26;69.44;99367.33;124777;1098;104172;-71
2023/03/26 01:46:40;;;;;;;36.45;19.15;;;;;;;11.26;69.77;99368.20;124752;1099;104239;-72
2023/03/26 01:49:12;;;;;;;34.43;19.63;;;;;;;11.27;69.82;99356.85;124713;1099;104158;-72
2023/03/26 01:51:44;;;;;;;34.23;19.33;;;;;;;11.28;69.81;99355.09;124653;1098;104338;-71
2023/03/26 01:54:20;;;;;;;37.90;19.40;;;;;;;11.29;69.54;99365.62;124753;1099;104245;-71
2023/03/26 01:57:03;;;;;;;35.07;19.70;;;;;;;11.31;69.44;99357.77;124638;1099;104284;-70
2023/03/26 01:59:55;;;;;;;35.70;19.13;;;;;;;11.29;69.59;99367.38;124667;1099;104173;-72
2023/03/26 02:02:30;;;;;;;33.53;19.07;;;;;;;11.30;69.94;99366.53;124750;1099;102641;-71
2023/03/26 02:05:12;;;;;;;33.60;19.33;;;;;;;11.31;69.54;99368.27;124669;1099;104373;-71
2023/03/26 02:07:49;;;;;;;34.47;19.23;;;;;;;11.31;70.06;99368.27;124734;1099;104176;-71
2023/03/26 02:10:26;;;;;;;36.35;19.00;;;;;;;11.30;70.04;99361.28;124615;1099;104185;-72
2023/03/26 02:12:59;;;;;;;35.33;20.17;;;;;;;11.31;69.95;99363.02;124726;1099;104201;-71
2023/03/26 02:15:30;;;;;;;34.60;18.97;;;;;;;11.29;69.93;99364.75;124512;1099;102006;-71
2023/03/26 02:18:02;;;;;;;33.33;19.57;;;;;;;11.28;69.76;99376.11;124543;1099;104323;-70
2023/03/26 02:20:34;;;;;;;32.73;18.80;;;;;;;11.25;69.96;99381.31;124599;1099;103713;-70
2023/03/26 02:23:05;;;;;;;37.90;19.87;;;;;;;11.23;70.13;99383.04;124643;1099;104281;-71
2023/03/26 02:25:38;;;;;;;34.83;19.57;;;;;;;11.24;70.12;99384.82;124242;1099;103879;-71
2023/03/26 02:28:10;;;;;;;34.23;19.02;;;;;;;11.22;70.01;99384.80;124262;1099;101968;-71
2023/03/26 02:30:42;;;;;;;33.17;18.60;;;;;;;11.22;70.17;99390.05;124772;1099;104332;-71
2023/03/26 02:33:16;;;;;;;36.40;18.45;;;;;;;11.18;70.33;99396.09;124779;1099;104242;-71
2023/03/26 02:35:47;;;;;;;32.50;18.80;;;;;;;11.14;70.53;99394.27;124670;1098;104239;-71
2023/03/26 02:38:18;;;;;;;36.87;19.40;;;;;;;11.13;70.27;99395.16;124725;1098;104319;-71
2023/03/26 02:40:50;;;;;;;33.47;19.20;;;;;;;11.12;70.29;99391.63;124861;1099;104143;-71
2023/03/26 02:43:22;;;;;;;36.37;19.63;;;;;;;11.12;70.47;99391.63;124782;1099;104351;-72
2023/03/26 02:45:54;;;;;;;37.97;19.20;;;;;;;11.14;70.48;99386.39;124701;1098;101836;-70
2023/03/26 02:48:52;;;;;;;33.23;18.00;;;;;;;11.13;70.65;99377.65;124476;1099;104188;-71
2023/03/26 02:51:28;;;;;;;33.73;18.20;;;;;;;11.11;70.65;99381.09;124618;1099;101872;-71
2023/03/26 02:54:17;;;;;;;34.50;18.73;;;;;;;11.09;70.42;99383.70;124392;1099;102611;-72
2023/03/26 02:57:17;;;;;;;36.50;18.60;;;;;;;11.06;70.71;99380.16;124485;1099;104252;-71
2023/03/26 03:00:12;;;;;;;36.10;18.70;;;;;;;11.03;70.50;99387.98;124872;1099;104160;-71
2023/03/26 03:02:46;;;;;;;34.43;19.33;;;;;;;11.02;70.59;99391.48;124845;1099;104210;-70
2023/03/26 03:05:42;;;;;;;32.73;19.30;;;;;;;11.01;70.58;99392.33;124457;1099;104211;-70
2023/03/26 03:08:17;;;;;;;34.93;20.40;;;;;;;11.00;70.97;99390.55;124752;1099;101968;-70
2023/03/26 03:11:14;;;;;;;36.40;19.03;;;;;;;11.00;71.05;99390.55;124636;1099;108206;-70
2023/03/26 03:13:53;;;;;;;38.75;20.05;;;;;;;10.97;71.00;99394.91;124666;1099;104239;-70
2023/03/26 03:16:29;;;;;;;36.90;19.63;;;;;;;10.94;71.07;99394.86;124743;1099;102188;-70
2023/03/26 03:19:02;;;;;;;39.27;22.07;;;;;;;10.88;71.34;99391.25;124731;1099;102215;-71
2023/03/26 03:21:43;;;;;;;35.73;19.93;;;;;;;10.82;70.82;99404.27;124685;1099;119147;-70
2023/03/26 03:24:17;;;;;;;34.60;20.40;;;;;;;10.79;71.24;99398.09;124784;1099;104246;-70
2023/03/26 03:26:53;;;;;;;37.87;20.47;;;;;;;10.76;71.40;99390.16;124778;1099;104227;-71
2023/03/26 03:29:48;;;;;;;36.03;20.07;;;;;;;10.73;71.13;99395.36;124688;1099;104245;-71
2023/03/26 03:32:39;;;;;;;38.63;21.03;;;;;;;10.70;71.15;99397.06;124561;1099;102399;-71
2023/03/26 03:35:11;;;;;;;35.67;19.87;;;;;;;10.61;71.10;99398.67;124265;1099;104262;-71
2023/03/26 03:37:43;;;;;;;41.00;20.47;;;;;;;10.54;71.44;99409.02;124278;1102;104185;-71
2023/03/26 03:40:15;;;;;;;37.67;21.43;;;;;;;10.46;71.81;99398.39;124645;1099;101823;-72
2023/03/26 03:42:47;;;;;;;38.87;21.40;;;;;;;10.48;71.32;99408.91;124767;1099;104185;-71
2023/03/26 03:45:22;;;;;;;38.90;21.30;;;;;;;10.46;71.65;99413.25;124289;1099;104300;-71
2023/03/26 03:47:56;;;;;;;37.90;20.97;;;;;;;10.38;71.55;99407.86;124711;1099;104252;-71
2023/03/26 03:50:33;;;;;;;41.37;22.00;;;;;;;10.30;71.80;99412.92;124565;1099;104782;-70
2023/03/26 03:53:24;;;;;;;40.60;21.97;;;;;;;10.25;72.18;99409.31;124728;1099;102201;-71
2023/03/26 03:55:56;;;;;;;41.33;21.30;;;;;;;10.18;72.23;99408.31;124321;1099;104269;-70
2023/03/26 03:58:33;;;;;;;38.97;21.77;;;;;;;10.17;71.89;99406.53;124612;1099;104172;-71
2023/03/26 04:01:09;;;;;;;38.30;21.43;;;;;;;10.20;71.98;99410.97;124310;1099;101896;-71
2023/03/26 04:03:51;;;;;;;39.90;21.93;;;;;;;10.18;72.21;99413.55;124628;1099;104412;-71
2023/03/26 04:06:24;;;;;;;39.63;21.70;;;;;;;10.16;72.18;99406.50;124657;1098;104307;-70
2023/03/26 04:08:56;;;;;;;37.60;21.47;;;;;;;10.15;72.45;99407.37;124637;1098;104217;-70
2023/03/26 04:11:27;;;;;;;38.83;20.80;;;;;;;10.18;72.96;99413.55;124344;1099;104172;-71
2023/03/26 04:14:22;;;;;;;40.10;22.17;;;;;;;10.21;72.42;99408.38;124668;1098;104103;-71
2023/03/26 04:17:05;;;;;;;41.53;22.67;;;;;;;10.26;72.93;99411.96;124367;1099;101948;-71
2023/03/26 04:19:38;;;;;;;42.10;23.02;;;;;;;10.19;72.82;99417.05;124676;1099;104171;-71
2023/03/26 04:22:11;;;;;;;38.00;22.57;;;;;;;10.11;73.21;99414.27;124672;1098;104235;-70
2023/03/26 04:25:04;;;;;;;42.80;23.87;;;;;;;10.04;73.33;99426.38;124662;1099;104185;-72
2023/03/26 04:28:00;;;;;;;41.00;22.83;;;;;;;10.00;73.12;99426.29;124655;1099;102020;-70
2023/03/26 04:30:44;;;;;;;40.27;23.40;;;;;;;10.01;73.16;99420.20;124658;1099;104162;-71
2023/03/26 04:33:30;;;;;;;41.27;22.50;;;;;;;10.03;73.45;99408.88;124713;1099;104249;-70
2023/03/26 04:36:01;;;;;;;37.77;22.30;;;;;;;10.13;73.49;99419.55;124674;1099;104217;-72
2023/03/26 04:38:40;;;;;;;38.20;22.30;;;;;;;10.21;73.81;99415.37;124647;1099;104204;-71
2023/03/26 04:41:13;;;;;;;40.43;23.20;;;;;;;10.30;73.51;99418.17;124698;1098;104224;-71
2023/03/26 04:44:04;;;;;;;35.60;19.97;;;;;;;10.34;73.98;99424.38;124691;1099;102060;-71
2023/03/26 04:46:44;;;;;;;39.50;22.07;;;;;;;10.31;74.25;99429.53;124296;1099;104233;-70
2023/03/26 04:49:25;;;;;;;37.40;21.90;;;;;;;10.26;74.39;99432.94;124195;1099;104302;-70
2023/03/26 04:51:56;;;;;;;38.20;20.27;;;;;;;10.26;74.36;99426.82;124308;1099;101895;-71
2023/03/26 04:54:47;;;;;;;32.97;19.57;;;;;;;10.29;74.80;99433.88;124657;1099;104179;-71
2023/03/26 04:57:23;;;;;;;32.53;18.47;;;;;;;10.28;75.70;99430.34;124241;1099;104159;-72
2023/03/26 05:00:13;;;;;;;36.20;20.03;;;;;;;10.30;75.68;99438.24;124657;1099;104192;-72
2023/03/26 05:02:48;;;;;;;32.83;19.50;;;;;;;10.31;75.53;99440.89;124401;1099;104238;-72
2023/03/26 05:05:20;;;;;;;33.03;19.70;;;;;;;10.31;75.26;99446.14;124690;1099;101845;-74
2023/03/26 05:07:51;;;;;;;37.13;20.10;;;;;;;10.34;75.38;99448.85;124772;1099;102106;-71
2023/03/26 05:10:23;;;;;;;33.83;19.17;;;;;;;10.39;75.76;99452.47;124708;1099;104156;-71
2023/03/26 05:12:59;;;;;;;32.23;20.17;;;;;;;10.43;75.80;99449.03;124774;1099;104238;-72
2023/03/26 05:15:34;;;;;;;36.00;20.83;;;;;;;10.49;75.67;99444.78;124685;1099;101901;-71
2023/03/26 05:18:12;;;;;;;32.80;18.93;;;;;;;10.56;75.94;99450.14;124433;1099;104252;-71
2023/03/26 05:20:46;;;;;;;30.57;17.40;;;;;;;10.63;76.99;99448.55;124696;1099;103767;-72
2023/03/26 05:23:17;;;;;;;33.73;18.17;;;;;;;10.66;76.99;99447.70;124724;1099;104166;-71
2023/03/26 05:25:54;;;;;;;32.90;18.47;;;;;;;10.69;77.42;99461.78;124698;1099;102408;-72
2023/03/26 05:28:29;;;;;;;;;;;;;;;10.70;77.73;99454.78;124843;1099;103319;-72
2023/03/26 05:31:21;;;;;;;28.27;16.80;;;;;;;10.78;77.14;99451.45;124772;1099;104245;-73
2023/03/26 05:33:54;;;;;;;27.83;15.67;;;;;;;10.86;77.97;99456.84;124646;1099;104282;-73
2023/03/26 05:36:27;;;;;;;29.10;17.00;;;;;;;10.90;77.45;99455.14;124692;1099;102336;-72
2023/03/26 05:39:13;;;;;;;27.40;15.83;;;;;;;10.96;77.65;99458.75;124371;1099;104217;-72
2023/03/26 05:42:01;;;;;;;27.30;15.80;;;;;;;11.04;77.44;99455.38;124646;1099;104179;-72
2023/03/26 05:44:40;;;;;;;26.93;14.57;;;;;;;11.12;77.12;99454.63;124725;1099;104255;-71
2023/03/26 05:47:19;;;;;;;26.40;15.33;;;;;;;11.24;77.54;99455.72;124751;1099;102357;-71
2023/03/26 05:49:50;;;;;;;25.20;14.07;;;;;;;11.35;77.36;99461.14;124760;1099;104175;-71
2023/03/26 05:52:21;;;;;;;23.23;13.97;;;;;;;11.40;77.94;99452.45;124778;1099;104169;-72
2023/03/26 05:55:12;;;;;;;23.73;14.30;;;;;;;11.43;77.63;99449.88;124734;1099;110888;-71
2023/03/26 05:58:02;;;;;;;22.97;12.67;;;;;;;11.52;77.63;99459.66;124758;1098;104245;-72
2023/03/26 06:00:37;;;;;;;;;;;;;;;11.55;77.77;99457.08;124919;1099;101943;-71
2023/03/26 06:03:11;;;;;;;22.87;13.87;;;;;;;11.64;78.01;99469.45;124648;1099;101980;-71
2023/03/26 06:06:10;;;;;;;21.40;11.90;;;;;;;11.64;77.56;99469.45;124730;1099;104246;-71
2023/03/26 06:08:47;;;;;;;22.70;12.83;;;;;;;11.66;77.46;99476.50;124805;1099;104185;-71
2023/03/26 06:11:21;;;;;;;22.53;12.63;;;;;;;11.69;77.60;99475.68;124771;1099;104221;-71
2023/03/26 06:13:52;;;;;;;21.00;12.47;;;;;;;11.70;78.13;99474.80;124661;1099;104169;-70
2023/03/26 06:16:23;;;;;;;24.27;12.13;;;;;;;11.69;77.86;99473.05;124514;1099;104181;-72
2023/03/26 06:19:01;;;;;;;19.80;11.53;;;;;;;11.69;77.70;99473.92;124652;1099;102317;-71
2023/03/26 06:21:32;;;;;;;20.67;11.50;;;;;;;11.72;77.71;99475.72;124599;1098;104241;-70
2023/03/26 06:24:15;;;;;;;19.07;10.83;;;;;;;11.79;77.90;99479.31;124675;1099;104248;-71
2023/03/26 06:27:09;;;;;;;21.93;11.67;;;;;;;11.79;78.36;99485.44;124582;1100;104298;-73
2023/03/26 06:30:16;;;;;;;19.97;11.10;;;;;;;11.81;77.75;99478.48;124797;1099;104320;-71
2023/03/26 06:32:58;;;;;;;20.90;11.13;;;;;;;11.91;77.83;99484.75;124724;1099;104235;-70
2023/03/26 06:35:33;;;;;;;20.50;10.57;;;;;;;11.96;77.54;99471.70;124540;1099;104172;-71
2023/03/26 06:38:06;;;;;;;19.17;10.40;;;;;;;11.97;77.29;99474.35;124400;1099;104166;-71
2023/03/26 06:40:38;;;;;;;19.70;10.03;;;;;;;12.05;77.08;99480.59;124337;1099;104159;-72
2023/03/26 06:43:22;;;;;;;17.83;9.70;;;;;;;12.09;76.76;99492.05;124335;1099;104303;-71
2023/03/26 06:46:12;;;;;;;16.73;8.73;;;;;;;12.08;76.89;99494.66;124762;1099;104169;-71
2023/03/26 06:48:44;;;;;;;18.43;10.00;;;;;;;12.10;76.49;99495.55;124820;1099;101916;-70
2023/03/26 06:51:40;;;;;;;16.80;8.20;;;;;;;12.15;76.38;99504.38;124732;1099;104185;-71
2023/03/26 06:54:20;;;;;;;16.27;7.83;;;;;;;12.26;76.38;99507.15;124751;1099;104238;-71
2023/03/26 06:56:51;;;;;;;15.70;7.90;;;;;;;12.32;76.06;99502.84;124703;1099;104188;-70
2023/03/26 06:59:42;;;;;;;14.73;7.30;;;;;;;12.43;75.62;99500.34;124746;1099;104172;-70
2023/03/26 07:02:32;;;;;;;13.60;6.53;;;;;;;12.39;74.56;99503.83;124700;1099;104279;-71
2023/03/26 07:05:22;;;;;;;12.97;6.60;;;;;;;12.27;74.40;99508.92;124724;1099;104249;-71
2023/03/26 07:08:12;;;;;;;12.93;6.63;;;;;;;12.21;74.45;99510.59;124762;1098;104294;-70
2023/03/26 07:11:02;;;;;;;12.03;6.40;;;;;;;12.25;73.93;99510.63;124667;1098;104201;-70
2023/03/26 07:13:35;;;;;;;;;;;;;;;12.28;73.22;99515.94;124746;1099;104163;-70
2023/03/26 07:16:25;;;;;;;11.00;5.70;;;;;;;12.31;73.28;99518.60;124685;1099;104220;-71
2023/03/26 07:19:12;;;;;;;11.27;5.67;;;;;;;12.27;72.90;99512.43;124695;1099;104181;-71
2023/03/26 07:21:46;;;;;;;9.63;5.27;;;;;;;12.27;72.17;99514.19;124606;1099;104278;-70
2023/03/26 07:24:37;;;;;;;13.10;5.60;;;;;;;12.32;72.57;99520.37;124698;1099;104284;-70
2023/03/26 07:27:24;;;;;;;9.77;5.17;;;;;;;12.35;72.18;99523.92;124674;1099;101915;-70
2023/03/26 07:30:02;;;;;;;10.87;4.97;;;;;;;12.43;71.99;99525.78;124622;1099;102347;-70
2023/03/26 07:33:08;;;;;;;10.20;5.33;;;;;;;12.40;71.26;99551.20;124347;1102;104272;-70
2023/03/26 07:36:05;;;;;;;11.27;5.20;;;;;;;12.32;71.40;99533.53;124656;1099;104252;-70
2023/03/26 07:39:26;;;;;;;12.77;5.23;;;;;;;12.29;70.69;99536.13;124719;1099;104227;-71
2023/03/26 07:42:37;;;;;;;12.67;5.47;;;;;;;12.28;70.82;99531.72;124346;1099;101836;-71
2023/03/26 07:45:36;;;;;;;12.07;4.97;;;;;;;12.29;70.52;99538.75;124628;1099;104182;-71
2023/03/26 07:48:32;;;;;;;10.03;5.10;;;;;;;12.44;70.26;99538.95;124529;1099;104297;-71
2023/03/26 07:51:17;;;;;;;9.17;4.50;;;;;;;12.57;70.36;99540.89;124430;1099;104284;-71
2023/03/26 07:54:10;;;;;;;11.93;5.00;;;;;;;12.69;69.81;99555.05;124750;1099;104310;-71
2023/03/26 07:56:55;;;;;;;9.13;5.00;;;;;;;12.68;69.85;99540.11;124747;1099;102045;-70
2023/03/26 07:59:46;;;;;;;8.47;4.60;;;;;;;12.75;69.38;99534.94;124829;1098;104258;-70
2023/03/26 08:03:30;;;;;;;11.40;5.50;;;;;;;12.77;68.86;99553.39;124261;1102;104249;-72
2023/03/26 08:06:15;;;;;;;9.97;4.90;;;;;;;12.78;68.75;99542.00;124698;1099;104345;-73
2023/03/26 08:09:07;;;;;;;10.93;5.47;;;;;;;12.73;67.75;99543.67;124324;1099;104163;-70
2023/03/26 08:11:53;;;;;;;9.93;5.13;;;;;;;12.79;68.16;99546.38;124625;1099;104372;-71
2023/03/26 08:14:40;;;;;;;7.97;4.50;;;;;;;12.83;67.88;99539.42;124776;1099;104166;-71
2023/03/26 08:17:16;;;;;;;7.87;4.80;;;;;;;12.85;67.99;99541.19;124425;1099;104201;-72
2023/03/26 08:20:00;;;;;;;9.30;4.73;;;;;;;12.92;68.32;99543.03;124796;1099;104259;-72
2023/03/26 08:22:36;;;;;;;8.70;4.90;;;;;;;13.08;68.77;99544.06;124766;1099;101825;-71
2023/03/26 08:25:26;;;;;;;10.70;5.00;;;;;;;13.26;67.82;99543.37;124405;1099;102336;-71
2023/03/26 08:28:09;;;;;;;11.50;5.20;;;;;;;13.37;67.43;99551.41;124581;1096;104306;-73
2023/03/26 08:30:41;;;;;;;10.77;5.00;;;;;;;13.43;67.65;99540.94;124740;1099;101821;-71
2023/03/26 08:33:19;;;;;;;9.87;5.20;;;;;;;13.47;67.03;99541.83;124512;1099;104192;-71
2023/03/26 08:35:50;;;;;;;12.00;5.00;;;;;;;13.56;66.71;99533.13;124691;1099;104361;-72
2023/03/26 08:38:22;;;;;;;9.97;5.27;;;;;;;13.69;66.18;99542.02;124751;1099;104351;-72
2023/03/26 08:41:31;;;;;;;8.80;4.90;;;;;;;13.76;66.41;99526.25;124695;1099;104172;-71
2023/03/26 08:44:43;;;;;;;10.57;5.47;;;;;;;13.83;66.42;99519.25;124768;1099;104313;-75
2023/03/26 08:47:45;;;;;;;7.77;5.03;;;;;;;13.90;65.43;99514.89;124443;1099;104224;-71
2023/03/26 08:50:46;;;;;;;10.00;5.00;;;;;;;13.88;65.57;99516.66;124401;1099;101961;-72
2023/03/26 08:54:05;;;;;;;9.23;5.10;;;;;;;13.80;65.59;99528.02;124786;1099;104233;-72
2023/03/26 08:56:44;;;;;;;11.00;5.00;;;;;;;13.72;65.24;99523.58;124134;1102;104232;-71
2023/03/26 08:59:49;;;;;;;10.80;4.83;;;;;;;13.74;65.91;99524.47;124788;1099;102169;-73
2023/03/26 09:02:46;;;;;;;9.77;5.10;;;;;;;13.86;65.48;99515.77;124654;1099;102157;-71
2023/03/26 09:05:53;;;;;;;9.53;4.90;;;;;;;13.95;66.33;99516.70;124275;1099;104252;-73
2023/03/26 09:08:57;;;;;;;10.10;4.87;;;;;;;14.19;65.66;99508.06;124388;1099;104235;-70
2023/03/26 09:12:01;;;;;;;11.38;5.62;;;;;;;14.42;65.05;99509.03;124787;1099;101896;-73
2023/03/26 09:15:05;;;;;;;10.17;4.67;;;;;;;14.52;64.57;99517.00;124669;1099;104240;-72
2023/03/26 09:18:10;;;;;;;11.63;4.90;;;;;;;14.66;63.86;99514.45;124739;1099;104177;-72
2023/03/26 09:21:11;;;;;;;9.75;4.67;;;;;;;14.79;64.81;99512.72;124747;1099;104082;-72
2023/03/26 09:24:05;;;;;;;10.50;4.20;;;;;;;14.94;64.23;99511.85;124765;1099;104204;-72
2023/03/26 09:26:50;;;;;;;10.03;4.47;;;;;;;14.98;63.50;99510.12;124676;1099;104190;-73
2023/03/26 09:30:11;;;;;;;9.67;4.47;;;;;;;14.88;62.00;99520.66;124636;1099;102731;-71
2023/03/26 09:33:12;;;;;;;6.07;3.80;;;;;;;14.85;61.70;99515.38;124609;1099;102205;-72
2023/03/26 09:36:12;;;;;;;7.40;4.03;;;;;;;14.78;60.96;99517.99;124719;1099;103673;-71
2023/03/26 09:38:51;;;;;;;5.73;3.70;;;;;;;14.70;61.91;99518.84;124668;1099;101862;-73
2023/03/26 09:41:41;;;;;;;8.87;3.90;;;;;;;14.74;61.24;99520.63;124804;1099;104329;-73
2023/03/26 09:44:39;;;;;;;8.00;4.27;;;;;;;14.75;60.92;99518.85;124418;1099;104374;-72
2023/03/26 09:47:42;;;;;;;7.60;4.00;;;;;;;14.95;61.64;99518.91;124396;1099;101931;-72
2023/03/26 09:50:29;;;;;;;7.70;3.97;;;;;;;15.00;61.21;99522.44;124738;1099;108767;-72
2023/03/26 09:53:12;;;;;;;7.53;3.63;;;;;;;14.93;61.40;99528.60;124838;1099;104188;-73
2023/03/26 09:56:01;;;;;;;8.55;4.05;;;;;;;14.94;60.73;99521.55;124779;1099;104223;-71
2023/03/26 09:58:48;;;;;;;7.83;4.03;;;;;;;14.97;59.91;99530.35;124842;1099;102498;-70
2023/03/26 10:01:28;;;;;;;9.33;4.10;;;;;;;14.83;60.01;99516.23;124718;1098;104155;-72
2023/03/26 10:04:13;;;;;;;8.90;3.80;;;;;;;14.66;60.28;99517.09;124726;1098;104185;-71
2023/03/26 10:06:57;;;;;;;9.07;3.90;;;;;;;14.62;60.18;99530.27;124736;1099;104272;-71
2023/03/26 10:09:38;;;;;;;5.80;3.45;;;;;;;14.50;59.43;99529.28;124788;1098;104269;-72
2023/03/26 10:12:21;;;;;;;5.77;3.73;;;;;;;14.36;59.50;99529.22;124810;1098;101882;-73
2023/03/26 10:15:02;;;;;;;7.67;3.60;;;;;;;14.33;60.39;99520.42;124724;1099;102558;-74
2023/03/26 10:17:46;;;;;;;7.73;3.60;;;;;;;14.33;60.52;99516.02;125738;1099;104094;-71
2023/03/26 10:20:38;;;;;;;;;;;;;;;14.33;58.77;99523.93;124815;1099;104208;-72
2023/03/26 10:23:25;;;;;;;5.10;2.80;;;;;;;14.26;59.42;99522.16;124697;1099;104166;-71
2023/03/26 10:26:15;;;;;;;5.33;2.70;;;;;;;14.18;58.59;99518.61;124703;1099;104712;-71
2023/03/26 10:29:04;;;;;;;4.53;2.90;;;;;;;14.07;58.58;99509.73;124728;1099;101882;-72
2023/03/26 10:31:42;;;;;;;4.03;2.40;;;;;;;14.02;58.79;99504.42;124421;1098;107200;-72
2023/03/26 10:34:38;;;;;;;3.30;2.10;;;;;;;13.97;58.05;99507.03;124393;1099;104207;-71
2023/03/26 10:37:15;;;;;;;5.63;2.10;;;;;;;13.86;58.32;99508.73;124738;1099;104194;-71
2023/03/26 10:40:08;;;;;;;2.53;1.90;;;;;;;13.84;57.62;99511.36;124762;1099;101826;-70
2023/03/26 10:42:55;;;;;;;2.43;1.83;;;;;;;13.80;58.07;99506.92;124819;1099;101906;-72
2023/03/26 10:45:39;;;;;;;4.73;2.70;;;;;;;13.78;58.03;99510.44;124796;1099;104174;-72
2023/03/26 10:48:24;;;;;;;5.17;2.65;;;;;;;13.71;57.84;99514.77;124823;1099;104214;-73
2023/03/26 10:51:08;;;;;;;4.03;2.30;;;;;;;13.66;57.76;99509.49;124759;1099;104281;-72
2023/03/26 10:53:48;;;;;;;6.57;2.50;;;;;;;13.69;57.40;99508.61;124892;1099;104185;-71
2023/03/26 10:56:26;;;;;;;5.47;2.13;;;;;;;13.78;57.41;99511.31;124578;1099;104323;-72
2023/03/26 10:58:59;;;;;;;3.03;2.00;;;;;;;13.86;58.28;99510.50;124681;1099;104098;-71
2023/03/26 11:01:41;;;;;;;3.80;2.10;;;;;;;13.91;58.08;99508.77;124702;1099;103550;-72
2023/03/26 11:04:25;;;;;;;4.43;2.27;;;;;;;13.94;58.19;99507.02;124788;1099;104172;-72
2023/03/26 11:07:05;;;;;;;2.20;2.00;;;;;;;13.98;57.36;99506.17;124789;1099;101899;-72
2023/03/26 11:09:44;;;;;;;5.77;2.20;;;;;;;13.96;57.51;99510.56;124724;1099;104191;-71
2023/03/26 11:12:24;;;;;;;3.33;2.40;;;;;;;13.94;57.96;99512.29;124757;1099;107559;-71
2023/03/26 11:15:02;;;;;;;5.50;2.50;;;;;;;13.99;57.26;99502.67;124807;1099;101820;-72
2023/03/26 11:17:43;;;;;;;4.77;2.20;;;;;;;14.11;58.06;99506.24;124745;1099;104255;-72
2023/03/26 11:20:20;;;;;;;4.50;2.23;;;;;;;14.20;56.83;99508.93;124799;1099;104267;-71
2023/03/26 11:23:07;;;;;;;2.60;1.70;;;;;;;14.22;57.33;99512.45;124423;1099;117974;-72
2023/03/26 11:25:55;;;;;;;3.15;1.95;;;;;;;14.19;56.64;99510.70;124741;1099;101847;-72
2023/03/26 11:28:51;;;;;;;6.53;3.03;;;;;;;14.11;56.45;99508.88;124594;1099;101950;-73
2023/03/26 11:31:33;;;;;;;5.57;2.50;;;;;;;14.10;57.03;99504.47;124812;1098;104252;-72
2023/03/26 11:34:11;;;;;;;6.80;2.33;;;;;;;14.11;57.18;99507.11;124769;1098;102519;-72
2023/03/26 11:36:48;;;;;;;4.60;2.50;;;;;;;14.14;56.43;99496.58;124706;1099;101984;-73
2023/03/26 11:39:24;;;;;;;2.77;2.03;;;;;;;14.17;56.55;99498.36;124875;1099;104182;-72
2023/03/26 11:42:05;;;;;;;3.43;2.30;;;;;;;14.21;57.05;99497.52;124882;1099;103695;-71
2023/03/26 11:44:51;;;;;;;4.70;2.73;;;;;;;14.26;56.30;99498.41;124913;1099;104133;-72
2023/03/26 11:47:26;;;;;;;4.77;2.57;;;;;;;14.26;57.05;99487.86;124939;1099;101823;-73
2023/03/26 11:50:00;;;;;;;7.60;2.70;;;;;;;14.30;56.33;99486.97;124774;1099;104893;-70
2023/03/26 11:52:31;;;;;;;4.27;2.57;;;;;;;14.41;56.61;99479.10;124559;1099;104463;-71
2023/03/26 11:55:02;;;;;;;5.80;2.90;;;;;;;14.56;57.16;99475.64;124544;1099;104126;-72
2023/03/26 11:57:37;;;;;;;5.70;2.80;;;;;;;14.68;56.29;99474.84;124496;1099;102776;-71
2023/03/26 12:00:16;;;;;;;6.40;3.10;;;;;;;14.76;56.48;99481.02;124776;1099;104255;-72
2023/03/26 12:02:49;;;;;;;6.30;2.90;;;;;;;14.81;56.54;99475.75;124333;1099;102338;-71
2023/03/26 12:05:25;;;;;;;5.05;2.50;;;;;;;14.81;55.12;99473.11;124573;1099;102481;-73
2023/03/26 12:07:58;;;;;;;4.23;2.40;;;;;;;14.81;56.15;99473.11;125156;1099;104264;-72
2023/03/26 12:10:33;;;;;;;4.67;2.83;;;;;;;14.84;55.24;99465.19;124867;1099;104238;-71
2023/03/26 12:13:21;;;;;;;5.63;2.70;;;;;;;14.86;55.66;99468.70;124845;1099;102284;-72
2023/03/26 12:15:57;;;;;;;4.23;2.63;;;;;;;14.85;55.13;99466.93;124776;1099;104286;-72